sensor_id;sensor_type;location;lat;lon;timestamp;temperature;humidity
21495;DHT22;10909;53.590;10.054;2023-02-01T00:00:11;8.20;81.70
21495;DHT22;10909;53.590;10.054;2023-02-01T00:02:38;8.20;81.40
21495;DHT22;10909;53.590;10.054;2023-02-01T00:05:08;8.30;81.50
21495;DHT22;10909;53.590;10.054;2023-02-01T00:07:34;8.20;81.90
21495;DHT22;10909;53.590;10.054;2023-02-01T00:10:03;8.20;81.10
21495;DHT22;10909;53.590;10.054;2023-02-01T00:12:30;8.20;80.90
21495;DHT22;10909;53.590;10.054;2023-02-01T00:14:56;8.30;81.80
21495;DHT22;10909;53.590;10.054;2023-02-01T00:17:21;8.20;81.10
21495;DHT22;10909;53.590;10.054;2023-02-01T00:19:47;8.20;81.40
21495;DHT22;10909;53.590;10.054;2023-02-01T00:22:13;8.20;81.50
21495;DHT22;10909;53.590;10.054;2023-02-01T00:24:38;8.10;81.60
21495;DHT22;10909;53.590;10.054;2023-02-01T00:27:04;8.10;81.90
21495;DHT22;10909;53.590;10.054;2023-02-01T00:29:30;8.00;82.00
21495;DHT22;10909;53.590;10.054;2023-02-01T00:31:55;8.00;82.00
21495;DHT22;10909;53.590;10.054;2023-02-01T00:34:21;8.00;82.40
21495;DHT22;10909;53.590;10.054;2023-02-01T00:36:47;8.00;81.80
21495;DHT22;10909;53.590;10.054;2023-02-01T00:39:13;8.00;82.00
21495;DHT22;10909;53.590;10.054;2023-02-01T00:41:40;8.00;81.90
21495;DHT22;10909;53.590;10.054;2023-02-01T00:44:06;7.90;81.90
21495;DHT22;10909;53.590;10.054;2023-02-01T00:46:32;8.00;81.80
21495;DHT22;10909;53.590;10.054;2023-02-01T00:48:59;8.00;81.90
21495;DHT22;10909;53.590;10.054;2023-02-01T00:51:27;8.10;81.60
21495;DHT22;10909;53.590;10.054;2023-02-01T00:53:53;8.10;82.10
21495;DHT22;10909;53.590;10.054;2023-02-01T00:56:19;8.10;81.70
21495;DHT22;10909;53.590;10.054;2023-02-01T00:58:45;8.20;81.90
21495;DHT22;10909;53.590;10.054;2023-02-01T01:01:17;8.20;82.20
21495;DHT22;10909;53.590;10.054;2023-02-01T01:03:46;8.20;82.50
21495;DHT22;10909;53.590;10.054;2023-02-01T01:06:15;8.30;82.80
21495;DHT22;10909;53.590;10.054;2023-02-01T01:08:41;8.30;82.10
21495;DHT22;10909;53.590;10.054;2023-02-01T01:11:17;8.30;82.50
21495;DHT22;10909;53.590;10.054;2023-02-01T01:13:46;8.30;82.00
21495;DHT22;10909;53.590;10.054;2023-02-01T01:16:13;8.30;82.00
21495;DHT22;10909;53.590;10.054;2023-02-01T01:18:39;8.30;81.70
21495;DHT22;10909;53.590;10.054;2023-02-01T01:21:06;8.40;82.20
21495;DHT22;10909;53.590;10.054;2023-02-01T01:23:32;8.40;83.30
21495;DHT22;10909;53.590;10.054;2023-02-01T01:25:58;8.40;82.50
21495;DHT22;10909;53.590;10.054;2023-02-01T01:28:24;8.40;82.40
21495;DHT22;10909;53.590;10.054;2023-02-01T01:30:49;8.60;82.60
21495;DHT22;10909;53.590;10.054;2023-02-01T01:33:15;8.40;82.40
21495;DHT22;10909;53.590;10.054;2023-02-01T01:35:42;8.50;82.60
21495;DHT22;10909;53.590;10.054;2023-02-01T01:38:09;8.50;82.60
21495;DHT22;10909;53.590;10.054;2023-02-01T01:40:35;8.50;82.00
21495;DHT22;10909;53.590;10.054;2023-02-01T01:43:01;8.50;81.60
21495;DHT22;10909;53.590;10.054;2023-02-01T01:45:28;8.50;82.30
21495;DHT22;10909;53.590;10.054;2023-02-01T01:48:00;8.50;81.70
21495;DHT22;10909;53.590;10.054;2023-02-01T01:50:41;8.60;82.20
21495;DHT22;10909;53.590;10.054;2023-02-01T01:53:09;8.50;81.50
21495;DHT22;10909;53.590;10.054;2023-02-01T01:55:39;8.60;81.80
21495;DHT22;10909;53.590;10.054;2023-02-01T01:58:09;8.60;82.50
21495;DHT22;10909;53.590;10.054;2023-02-01T02:00:36;8.60;82.40
21495;DHT22;10909;53.590;10.054;2023-02-01T02:03:25;8.60;81.90
21495;DHT22;10909;53.590;10.054;2023-02-01T02:05:54;8.70;82.10
21495;DHT22;10909;53.590;10.054;2023-02-01T02:08:22;8.70;82.20
21495;DHT22;10909;53.590;10.054;2023-02-01T02:10:50;8.70;82.30
21495;DHT22;10909;53.590;10.054;2023-02-01T02:25:33;8.80;81.90
21495;DHT22;10909;53.590;10.054;2023-02-01T02:31:35;8.80;81.70
21495;DHT22;10909;53.590;10.054;2023-02-01T02:34:21;8.80;81.60
21495;DHT22;10909;53.590;10.054;2023-02-01T02:39:59;8.80;81.70
21495;DHT22;10909;53.590;10.054;2023-02-01T02:43:18;8.70;81.90
21495;DHT22;10909;53.590;10.054;2023-02-01T02:52:04;8.70;81.80
21495;DHT22;10909;53.590;10.054;2023-02-01T02:54:52;8.60;81.90
21495;DHT22;10909;53.590;10.054;2023-02-01T02:57:36;8.60;82.20
21495;DHT22;10909;53.590;10.054;2023-02-01T03:00:30;8.50;82.40
21495;DHT22;10909;53.590;10.054;2023-02-01T03:03:18;8.50;82.30
21495;DHT22;10909;53.590;10.054;2023-02-01T03:06:03;8.50;82.50
21495;DHT22;10909;53.590;10.054;2023-02-01T03:08:31;8.40;82.40
21495;DHT22;10909;53.590;10.054;2023-02-01T03:11:08;8.50;82.90
21495;DHT22;10909;53.590;10.054;2023-02-01T03:13:53;8.40;82.60
21495;DHT22;10909;53.590;10.054;2023-02-01T03:16:26;8.40;82.60
21495;DHT22;10909;53.590;10.054;2023-02-01T03:18:57;8.30;82.70
21495;DHT22;10909;53.590;10.054;2023-02-01T03:21:38;8.30;83.00
21495;DHT22;10909;53.590;10.054;2023-02-01T03:26:54;8.20;83.50
21495;DHT22;10909;53.590;10.054;2023-02-01T03:32:15;8.10;83.90
21495;DHT22;10909;53.590;10.054;2023-02-01T03:34:41;8.00;84.10
21495;DHT22;10909;53.590;10.054;2023-02-01T03:37:12;8.00;84.20
21495;DHT22;10909;53.590;10.054;2023-02-01T03:39:52;8.00;84.40
21495;DHT22;10909;53.590;10.054;2023-02-01T03:47:40;7.80;83.90
21495;DHT22;10909;53.590;10.054;2023-02-01T03:50:10;7.80;84.10
21495;DHT22;10909;53.590;10.054;2023-02-01T03:53:02;7.80;84.10
21495;DHT22;10909;53.590;10.054;2023-02-01T03:55:28;7.70;84.20
21495;DHT22;10909;53.590;10.054;2023-02-01T03:58:16;7.80;84.40
21495;DHT22;10909;53.590;10.054;2023-02-01T04:00:51;7.80;84.50
21495;DHT22;10909;53.590;10.054;2023-02-01T04:03:19;7.80;84.60
21495;DHT22;10909;53.590;10.054;2023-02-01T04:05:45;7.70;84.60
21495;DHT22;10909;53.590;10.054;2023-02-01T04:08:10;7.70;84.70
21495;DHT22;10909;53.590;10.054;2023-02-01T04:10:36;7.70;84.80
21495;DHT22;10909;53.590;10.054;2023-02-01T04:13:02;7.70;84.90
21495;DHT22;10909;53.590;10.054;2023-02-01T04:15:28;7.70;85.00
21495;DHT22;10909;53.590;10.054;2023-02-01T04:17:54;7.70;85.10
21495;DHT22;10909;53.590;10.054;2023-02-01T04:20:19;7.70;85.10
21495;DHT22;10909;53.590;10.054;2023-02-01T04:22:45;7.70;85.20
21495;DHT22;10909;53.590;10.054;2023-02-01T04:25:11;7.60;85.20
21495;DHT22;10909;53.590;10.054;2023-02-01T04:27:36;7.60;85.30
21495;DHT22;10909;53.590;10.054;2023-02-01T04:30:04;7.60;85.50
21495;DHT22;10909;53.590;10.054;2023-02-01T04:32:30;7.60;85.60
21495;DHT22;10909;53.590;10.054;2023-02-01T04:34:56;7.60;85.60
21495;DHT22;10909;53.590;10.054;2023-02-01T04:37:21;7.60;85.70
21495;DHT22;10909;53.590;10.054;2023-02-01T04:39:47;7.50;85.60
21495;DHT22;10909;53.590;10.054;2023-02-01T04:42:12;7.60;85.70
21495;DHT22;10909;53.590;10.054;2023-02-01T04:44:38;7.60;85.60
21495;DHT22;10909;53.590;10.054;2023-02-01T04:47:07;7.60;85.60
21495;DHT22;10909;53.590;10.054;2023-02-01T04:49:33;7.60;85.40
21495;DHT22;10909;53.590;10.054;2023-02-01T04:51:59;7.50;85.20
21495;DHT22;10909;53.590;10.054;2023-02-01T04:54:24;7.50;85.40
21495;DHT22;10909;53.590;10.054;2023-02-01T04:56:50;7.40;85.30
21495;DHT22;10909;53.590;10.054;2023-02-01T04:59:16;7.40;85.30
21495;DHT22;10909;53.590;10.054;2023-02-01T05:01:42;7.40;85.30
21495;DHT22;10909;53.590;10.054;2023-02-01T05:04:07;7.40;85.40
21495;DHT22;10909;53.590;10.054;2023-02-01T05:06:33;7.40;85.60
21495;DHT22;10909;53.590;10.054;2023-02-01T05:08:58;7.40;85.60
21495;DHT22;10909;53.590;10.054;2023-02-01T05:11:25;7.40;85.60
21495;DHT22;10909;53.590;10.054;2023-02-01T05:14:09;7.30;85.40
21495;DHT22;10909;53.590;10.054;2023-02-01T05:16:35;7.30;85.50
21495;DHT22;10909;53.590;10.054;2023-02-01T05:19:01;7.30;85.50
21495;DHT22;10909;53.590;10.054;2023-02-01T05:21:27;7.20;85.40
21495;DHT22;10909;53.590;10.054;2023-02-01T05:23:53;7.20;85.20
21495;DHT22;10909;53.590;10.054;2023-02-01T05:26:38;7.10;84.90
21495;DHT22;10909;53.590;10.054;2023-02-01T05:29:06;7.00;84.70
21495;DHT22;10909;53.590;10.054;2023-02-01T05:31:32;6.90;84.80
21495;DHT22;10909;53.590;10.054;2023-02-01T05:33:57;6.90;84.70
21495;DHT22;10909;53.590;10.054;2023-02-01T05:36:23;6.80;84.70
21495;DHT22;10909;53.590;10.054;2023-02-01T05:38:53;6.70;85.10
21495;DHT22;10909;53.590;10.054;2023-02-01T05:41:19;6.60;85.20
21495;DHT22;10909;53.590;10.054;2023-02-01T05:43:44;6.60;85.40
21495;DHT22;10909;53.590;10.054;2023-02-01T05:46:10;6.50;85.50
21495;DHT22;10909;53.590;10.054;2023-02-01T05:48:41;6.50;85.50
21495;DHT22;10909;53.590;10.054;2023-02-01T05:51:08;6.40;85.60
21495;DHT22;10909;53.590;10.054;2023-02-01T05:53:33;6.40;85.70
21495;DHT22;10909;53.590;10.054;2023-02-01T05:55:59;6.30;85.90
21495;DHT22;10909;53.590;10.054;2023-02-01T05:58:25;6.30;86.00
21495;DHT22;10909;53.590;10.054;2023-02-01T06:00:51;6.20;86.20
21495;DHT22;10909;53.590;10.054;2023-02-01T06:03:16;6.20;86.30
21495;DHT22;10909;53.590;10.054;2023-02-01T06:05:46;6.20;86.40
21495;DHT22;10909;53.590;10.054;2023-02-01T06:08:13;6.10;86.40
21495;DHT22;10909;53.590;10.054;2023-02-01T06:10:40;6.10;86.60
21495;DHT22;10909;53.590;10.054;2023-02-01T06:13:05;6.10;86.70
21495;DHT22;10909;53.590;10.054;2023-02-01T06:15:31;6.00;86.70
21495;DHT22;10909;53.590;10.054;2023-02-01T06:17:58;6.00;86.80
21495;DHT22;10909;53.590;10.054;2023-02-01T06:20:23;6.00;86.90
21495;DHT22;10909;53.590;10.054;2023-02-01T06:22:50;6.00;87.00
21495;DHT22;10909;53.590;10.054;2023-02-01T06:25:16;6.00;87.10
21495;DHT22;10909;53.590;10.054;2023-02-01T06:27:42;6.10;87.30
21495;DHT22;10909;53.590;10.054;2023-02-01T06:30:11;6.10;87.30
21495;DHT22;10909;53.590;10.054;2023-02-01T06:32:39;6.10;87.50
21495;DHT22;10909;53.590;10.054;2023-02-01T06:35:07;6.10;87.60
21495;DHT22;10909;53.590;10.054;2023-02-01T06:37:33;6.10;87.70
21495;DHT22;10909;53.590;10.054;2023-02-01T06:39:59;6.20;87.80
21495;DHT22;10909;53.590;10.054;2023-02-01T06:42:25;6.20;87.90
21495;DHT22;10909;53.590;10.054;2023-02-01T06:44:51;6.20;87.90
21495;DHT22;10909;53.590;10.054;2023-02-01T06:47:16;6.30;88.10
21495;DHT22;10909;53.590;10.054;2023-02-01T06:49:42;6.30;88.10
21495;DHT22;10909;53.590;10.054;2023-02-01T06:52:08;6.30;88.30
21495;DHT22;10909;53.590;10.054;2023-02-01T06:54:33;6.40;88.30
21495;DHT22;10909;53.590;10.054;2023-02-01T06:56:59;6.40;88.30
21495;DHT22;10909;53.590;10.054;2023-02-01T06:59:25;6.40;88.40
21495;DHT22;10909;53.590;10.054;2023-02-01T07:01:51;6.50;88.50
21495;DHT22;10909;53.590;10.054;2023-02-01T07:04:17;6.50;88.40
21495;DHT22;10909;53.590;10.054;2023-02-01T07:06:42;6.50;88.40
21495;DHT22;10909;53.590;10.054;2023-02-01T07:09:09;6.60;88.50
21495;DHT22;10909;53.590;10.054;2023-02-01T07:11:35;6.60;88.60
21495;DHT22;10909;53.590;10.054;2023-02-01T07:14:02;6.70;88.70
21495;DHT22;10909;53.590;10.054;2023-02-01T07:16:28;6.70;88.80
21495;DHT22;10909;53.590;10.054;2023-02-01T07:18:54;6.70;88.90
21495;DHT22;10909;53.590;10.054;2023-02-01T07:21:20;6.70;88.80
21495;DHT22;10909;53.590;10.054;2023-02-01T07:23:45;6.80;88.90
21495;DHT22;10909;53.590;10.054;2023-02-01T07:26:13;6.80;88.80
21495;DHT22;10909;53.590;10.054;2023-02-01T07:28:40;6.90;88.80
21495;DHT22;10909;53.590;10.054;2023-02-01T07:31:09;6.90;88.80
21495;DHT22;10909;53.590;10.054;2023-02-01T07:33:35;7.00;88.90
21495;DHT22;10909;53.590;10.054;2023-02-01T07:36:04;7.00;89.10
21495;DHT22;10909;53.590;10.054;2023-02-01T07:38:30;7.00;89.20
21495;DHT22;10909;53.590;10.054;2023-02-01T07:41:02;7.10;89.40
21495;DHT22;10909;53.590;10.054;2023-02-01T07:43:29;7.10;89.40
21495;DHT22;10909;53.590;10.054;2023-02-01T07:45:55;7.10;89.00
21495;DHT22;10909;53.590;10.054;2023-02-01T07:48:22;7.20;88.80
21495;DHT22;10909;53.590;10.054;2023-02-01T07:50:48;7.10;88.20
21495;DHT22;10909;53.590;10.054;2023-02-01T07:53:21;7.10;88.30
21495;DHT22;10909;53.590;10.054;2023-02-01T07:55:47;7.10;88.40
21495;DHT22;10909;53.590;10.054;2023-02-01T07:58:13;7.10;88.50
21495;DHT22;10909;53.590;10.054;2023-02-01T08:00:39;7.10;88.70
21495;DHT22;10909;53.590;10.054;2023-02-01T08:03:23;7.20;88.80
21495;DHT22;10909;53.590;10.054;2023-02-01T08:05:54;7.20;88.90
21495;DHT22;10909;53.590;10.054;2023-02-01T08:08:20;7.20;89.10
21495;DHT22;10909;53.590;10.054;2023-02-01T08:10:46;7.30;89.30
21495;DHT22;10909;53.590;10.054;2023-02-01T08:13:12;7.30;89.50
21495;DHT22;10909;53.590;10.054;2023-02-01T08:15:38;7.30;89.60
21495;DHT22;10909;53.590;10.054;2023-02-01T08:18:03;7.40;89.80
21495;DHT22;10909;53.590;10.054;2023-02-01T08:20:30;7.40;89.80
21495;DHT22;10909;53.590;10.054;2023-02-01T08:22:56;7.50;89.80
21495;DHT22;10909;53.590;10.054;2023-02-01T08:25:22;7.50;89.80
21495;DHT22;10909;53.590;10.054;2023-02-01T08:27:48;7.60;89.80
21495;DHT22;10909;53.590;10.054;2023-02-01T08:30:15;7.60;89.70
21495;DHT22;10909;53.590;10.054;2023-02-01T08:32:42;7.70;89.90
21495;DHT22;10909;53.590;10.054;2023-02-01T08:35:08;7.80;90.00
21495;DHT22;10909;53.590;10.054;2023-02-01T08:37:33;7.80;89.80
21495;DHT22;10909;53.590;10.054;2023-02-01T08:39:59;7.90;89.90
21495;DHT22;10909;53.590;10.054;2023-02-01T08:42:25;8.00;90.00
21495;DHT22;10909;53.590;10.054;2023-02-01T08:45:09;8.00;89.30
21495;DHT22;10909;53.590;10.054;2023-02-01T08:47:35;8.00;88.20
21495;DHT22;10909;53.590;10.054;2023-02-01T08:50:02;7.90;87.20
21495;DHT22;10909;53.590;10.054;2023-02-01T08:52:28;8.00;87.00
21495;DHT22;10909;53.590;10.054;2023-02-01T08:54:53;7.90;87.00
21495;DHT22;10909;53.590;10.054;2023-02-01T08:57:19;7.90;87.20
21495;DHT22;10909;53.590;10.054;2023-02-01T08:59:45;7.90;86.70
21495;DHT22;10909;53.590;10.054;2023-02-01T09:02:13;7.90;86.70
21495;DHT22;10909;53.590;10.054;2023-02-01T09:04:39;7.90;86.70
21495;DHT22;10909;53.590;10.054;2023-02-01T09:07:05;7.90;87.20
21495;DHT22;10909;53.590;10.054;2023-02-01T09:09:30;7.80;87.00
21495;DHT22;10909;53.590;10.054;2023-02-01T09:11:56;7.90;87.40
21495;DHT22;10909;53.590;10.054;2023-02-01T09:14:22;7.90;87.70
21495;DHT22;10909;53.590;10.054;2023-02-01T09:16:47;8.10;88.20
21495;DHT22;10909;53.590;10.054;2023-02-01T09:19:14;7.90;88.00
21495;DHT22;10909;53.590;10.054;2023-02-01T09:21:40;8.00;88.10
21495;DHT22;10909;53.590;10.054;2023-02-01T09:24:06;8.10;87.50
21495;DHT22;10909;53.590;10.054;2023-02-01T09:26:33;8.10;87.50
21495;DHT22;10909;53.590;10.054;2023-02-01T09:28:59;8.10;87.70
21495;DHT22;10909;53.590;10.054;2023-02-01T09:31:25;8.20;87.50
21495;DHT22;10909;53.590;10.054;2023-02-01T09:33:51;8.30;87.40
21495;DHT22;10909;53.590;10.054;2023-02-01T09:36:16;8.30;87.40
21495;DHT22;10909;53.590;10.054;2023-02-01T09:38:45;8.40;86.60
21495;DHT22;10909;53.590;10.054;2023-02-01T09:41:39;8.50;86.70
21495;DHT22;10909;53.590;10.054;2023-02-01T09:44:47;8.50;86.40
21495;DHT22;10909;53.590;10.054;2023-02-01T09:47:18;8.60;86.20
21495;DHT22;10909;53.590;10.054;2023-02-01T09:50:11;8.60;86.00
21495;DHT22;10909;53.590;10.054;2023-02-01T09:55:18;8.70;86.00
21495;DHT22;10909;53.590;10.054;2023-02-01T09:58:49;8.80;86.10
21495;DHT22;10909;53.590;10.054;2023-02-01T10:00:58;8.80;86.30
21495;DHT22;10909;53.590;10.054;2023-02-01T10:03:27;8.80;85.50
21495;DHT22;10909;53.590;10.054;2023-02-01T10:14:13;9.00;85.70
21495;DHT22;10909;53.590;10.054;2023-02-01T10:22:39;9.10;84.90
21495;DHT22;10909;53.590;10.054;2023-02-01T10:28:13;9.10;83.80
21495;DHT22;10909;53.590;10.054;2023-02-01T10:30:44;9.10;83.80
21495;DHT22;10909;53.590;10.054;2023-02-01T10:36:16;9.10;83.60
21495;DHT22;10909;53.590;10.054;2023-02-01T10:38:45;9.10;83.50
21495;DHT22;10909;53.590;10.054;2023-02-01T10:41:17;9.10;83.10
21495;DHT22;10909;53.590;10.054;2023-02-01T10:43:48;9.00;82.20
21495;DHT22;10909;53.590;10.054;2023-02-01T10:46:16;8.90;82.60
21495;DHT22;10909;53.590;10.054;2023-02-01T10:48:42;8.90;83.20
21495;DHT22;10909;53.590;10.054;2023-02-01T10:56:25;8.50;82.40
21495;DHT22;10909;53.590;10.054;2023-02-01T10:58:50;8.40;83.60
21495;DHT22;10909;53.590;10.054;2023-02-01T11:01:30;8.30;84.20
21495;DHT22;10909;53.590;10.054;2023-02-01T11:03:58;8.30;85.00
21495;DHT22;10909;53.590;10.054;2023-02-01T11:06:37;8.20;85.40
21495;DHT22;10909;53.590;10.054;2023-02-01T11:09:10;8.20;85.60
21495;DHT22;10909;53.590;10.054;2023-02-01T11:14:26;8.10;85.80
21495;DHT22;10909;53.590;10.054;2023-02-01T11:16:55;8.00;86.30
21495;DHT22;10909;53.590;10.054;2023-02-01T11:19:21;8.00;86.50
21495;DHT22;10909;53.590;10.054;2023-02-01T11:21:55;8.10;86.60
21495;DHT22;10909;53.590;10.054;2023-02-01T11:24:33;8.10;86.60
21495;DHT22;10909;53.590;10.054;2023-02-01T11:27:05;8.10;86.80
21495;DHT22;10909;53.590;10.054;2023-02-01T11:29:59;8.10;86.90
21495;DHT22;10909;53.590;10.054;2023-02-01T11:32:27;8.10;87.30
21495;DHT22;10909;53.590;10.054;2023-02-01T11:35:02;8.10;87.40
21495;DHT22;10909;53.590;10.054;2023-02-01T11:37:37;8.20;87.80
21495;DHT22;10909;53.590;10.054;2023-02-01T11:40:27;8.20;87.90
21495;DHT22;10909;53.590;10.054;2023-02-01T11:42:56;8.30;87.90
21495;DHT22;10909;53.590;10.054;2023-02-01T11:45:26;8.30;88.00
21495;DHT22;10909;53.590;10.054;2023-02-01T11:47:54;8.30;87.80
21495;DHT22;10909;53.590;10.054;2023-02-01T11:50:34;8.40;87.50
21495;DHT22;10909;53.590;10.054;2023-02-01T11:56:08;8.40;87.60
21495;DHT22;10909;53.590;10.054;2023-02-01T12:01:34;8.50;87.20
21495;DHT22;10909;53.590;10.054;2023-02-01T12:06:48;8.50;86.30
21495;DHT22;10909;53.590;10.054;2023-02-01T12:15:06;8.40;85.50
21495;DHT22;10909;53.590;10.054;2023-02-01T12:20:18;8.40;85.70
21495;DHT22;10909;53.590;10.054;2023-02-01T12:23:23;8.30;85.40
21495;DHT22;10909;53.590;10.054;2023-02-01T12:26:09;8.20;85.40
21495;DHT22;10909;53.590;10.054;2023-02-01T12:29:07;8.20;85.60
21495;DHT22;10909;53.590;10.054;2023-02-01T12:31:51;8.10;85.80
21495;DHT22;10909;53.590;10.054;2023-02-01T12:40:10;8.00;86.30
21495;DHT22;10909;53.590;10.054;2023-02-01T12:47:57;7.80;85.80
21495;DHT22;10909;53.590;10.054;2023-02-01T12:50:40;7.60;85.10
21495;DHT22;10909;53.590;10.054;2023-02-01T12:53:19;7.60;85.50
21495;DHT22;10909;53.590;10.054;2023-02-01T12:55:54;7.50;85.90
21495;DHT22;10909;53.590;10.054;2023-02-01T13:01:20;7.40;86.30
21495;DHT22;10909;53.590;10.054;2023-02-01T13:03:52;7.40;87.20
21495;DHT22;10909;53.590;10.054;2023-02-01T13:11:43;7.30;86.60
21495;DHT22;10909;53.590;10.054;2023-02-01T13:14:23;7.20;86.90
21495;DHT22;10909;53.590;10.054;2023-02-01T13:17:19;7.20;87.10
21495;DHT22;10909;53.590;10.054;2023-02-01T13:22:21;7.30;87.30
21495;DHT22;10909;53.590;10.054;2023-02-01T13:25:03;7.20;89.20
21495;DHT22;10909;53.590;10.054;2023-02-01T13:27:30;7.30;88.90
21495;DHT22;10909;53.590;10.054;2023-02-01T13:32:51;7.70;90.30
21495;DHT22;10909;53.590;10.054;2023-02-01T13:38:51;8.20;89.50
21495;DHT22;10909;53.590;10.054;2023-02-01T13:41:33;8.40;88.30
21495;DHT22;10909;53.590;10.054;2023-02-01T13:44:08;8.60;87.50
21495;DHT22;10909;53.590;10.054;2023-02-01T13:46:45;8.70;87.00
21495;DHT22;10909;53.590;10.054;2023-02-01T13:49:38;8.70;85.40
21495;DHT22;10909;53.590;10.054;2023-02-01T13:52:16;8.70;86.00
21495;DHT22;10909;53.590;10.054;2023-02-01T13:54:48;8.70;86.40
21495;DHT22;10909;53.590;10.054;2023-02-01T13:57:36;8.80;86.00
21495;DHT22;10909;53.590;10.054;2023-02-01T14:00:29;8.80;85.70
21495;DHT22;10909;53.590;10.054;2023-02-01T14:03:07;8.80;85.20
21495;DHT22;10909;53.590;10.054;2023-02-01T14:10:48;8.60;84.30
21495;DHT22;10909;53.590;10.054;2023-02-01T14:13:39;8.50;84.40
21495;DHT22;10909;53.590;10.054;2023-02-01T14:23:55;8.30;85.20
21495;DHT22;10909;53.590;10.054;2023-02-01T14:37:06;8.10;85.20
21495;DHT22;10909;53.590;10.054;2023-02-01T14:39:37;8.00;83.70
21495;DHT22;10909;53.590;10.054;2023-02-01T14:44:57;7.80;82.90
21495;DHT22;10909;53.590;10.054;2023-02-01T14:47:40;7.60;83.20
21495;DHT22;10909;53.590;10.054;2023-02-01T14:52:41;7.40;84.80
21495;DHT22;10909;53.590;10.054;2023-02-01T14:55:29;7.30;85.90
21495;DHT22;10909;53.590;10.054;2023-02-01T14:57:58;7.30;85.80
21495;DHT22;10909;53.590;10.054;2023-02-01T15:00:27;7.30;86.30
21495;DHT22;10909;53.590;10.054;2023-02-01T15:02:59;7.30;86.60
21495;DHT22;10909;53.590;10.054;2023-02-01T15:05:37;7.30;86.90
21495;DHT22;10909;53.590;10.054;2023-02-01T15:08:21;7.30;87.10
21495;DHT22;10909;53.590;10.054;2023-02-01T15:10:52;7.40;87.20
21495;DHT22;10909;53.590;10.054;2023-02-01T15:13:24;7.40;87.30
21495;DHT22;10909;53.590;10.054;2023-02-01T15:16:12;7.40;87.20
21495;DHT22;10909;53.590;10.054;2023-02-01T15:18:38;7.40;87.20
21495;DHT22;10909;53.590;10.054;2023-02-01T15:21:05;7.40;87.20
21495;DHT22;10909;53.590;10.054;2023-02-01T15:23:32;7.40;87.00
21495;DHT22;10909;53.590;10.054;2023-02-01T15:25:58;7.50;87.20
21495;DHT22;10909;53.590;10.054;2023-02-01T15:28:26;7.50;87.10
21495;DHT22;10909;53.590;10.054;2023-02-01T15:31:03;7.50;86.80
21495;DHT22;10909;53.590;10.054;2023-02-01T15:33:30;7.50;86.90
21495;DHT22;10909;53.590;10.054;2023-02-01T15:36:09;7.50;86.90
21495;DHT22;10909;53.590;10.054;2023-02-01T15:38:38;7.50;86.50
21495;DHT22;10909;53.590;10.054;2023-02-01T15:44:02;7.50;86.40
21495;DHT22;10909;53.590;10.054;2023-02-01T15:46:49;7.50;86.60
21495;DHT22;10909;53.590;10.054;2023-02-01T15:49:39;7.50;86.70
21495;DHT22;10909;53.590;10.054;2023-02-01T15:54:49;7.50;86.40
21495;DHT22;10909;53.590;10.054;2023-02-01T15:57:22;7.50;86.20
21495;DHT22;10909;53.590;10.054;2023-02-01T15:59:59;7.50;86.40
21495;DHT22;10909;53.590;10.054;2023-02-01T16:02:36;7.50;86.70
21495;DHT22;10909;53.590;10.054;2023-02-01T16:05:05;7.50;86.50
21495;DHT22;10909;53.590;10.054;2023-02-01T16:07:33;7.40;86.50
21495;DHT22;10909;53.590;10.054;2023-02-01T16:10:02;7.40;86.80
21495;DHT22;10909;53.590;10.054;2023-02-01T16:12:34;7.40;86.70
21495;DHT22;10909;53.590;10.054;2023-02-01T16:15:10;7.40;86.80
21495;DHT22;10909;53.590;10.054;2023-02-01T16:17:35;7.40;86.90
21495;DHT22;10909;53.590;10.054;2023-02-01T16:20:01;7.40;86.80
21495;DHT22;10909;53.590;10.054;2023-02-01T16:22:27;7.40;86.90
21495;DHT22;10909;53.590;10.054;2023-02-01T16:24:53;7.40;86.90
21495;DHT22;10909;53.590;10.054;2023-02-01T16:27:19;7.40;86.90
21495;DHT22;10909;53.590;10.054;2023-02-01T16:29:46;7.50;87.20
21495;DHT22;10909;53.590;10.054;2023-02-01T16:32:21;7.50;87.00
21495;DHT22;10909;53.590;10.054;2023-02-01T16:34:48;7.50;87.00
21495;DHT22;10909;53.590;10.054;2023-02-01T16:37:17;7.50;87.00
21495;DHT22;10909;53.590;10.054;2023-02-01T16:39:44;7.60;87.20
21495;DHT22;10909;53.590;10.054;2023-02-01T16:42:14;7.60;87.20
21495;DHT22;10909;53.590;10.054;2023-02-01T16:44:40;7.60;87.20
21495;DHT22;10909;53.590;10.054;2023-02-01T16:47:18;7.60;87.30
21495;DHT22;10909;53.590;10.054;2023-02-01T16:49:44;7.70;87.30
21495;DHT22;10909;53.590;10.054;2023-02-01T16:52:30;7.70;87.30
21495;DHT22;10909;53.590;10.054;2023-02-01T16:54:56;7.70;86.90
21495;DHT22;10909;53.590;10.054;2023-02-01T16:57:22;7.70;86.90
21495;DHT22;10909;53.590;10.054;2023-02-01T16:59:49;7.70;86.60
21495;DHT22;10909;53.590;10.054;2023-02-01T17:02:17;7.80;86.60
21495;DHT22;10909;53.590;10.054;2023-02-01T17:04:44;7.80;87.00
21495;DHT22;10909;53.590;10.054;2023-02-01T17:07:17;7.80;87.10
21495;DHT22;10909;53.590;10.054;2023-02-01T17:09:44;7.80;86.80
21495;DHT22;10909;53.590;10.054;2023-02-01T17:12:27;7.80;86.70
21495;DHT22;10909;53.590;10.054;2023-02-01T17:14:55;7.90;87.00
21495;DHT22;10909;53.590;10.054;2023-02-01T17:17:21;7.90;86.60
21495;DHT22;10909;53.590;10.054;2023-02-01T17:19:49;7.90;86.70
21495;DHT22;10909;53.590;10.054;2023-02-01T17:22:18;7.90;86.20
21495;DHT22;10909;53.590;10.054;2023-02-01T17:24:44;8.00;86.40
21495;DHT22;10909;53.590;10.054;2023-02-01T17:27:10;8.00;86.50
21495;DHT22;10909;53.590;10.054;2023-02-01T17:29:35;8.00;86.30
21495;DHT22;10909;53.590;10.054;2023-02-01T17:32:02;8.00;86.20
21495;DHT22;10909;53.590;10.054;2023-02-01T17:34:28;8.10;86.30
21495;DHT22;10909;53.590;10.054;2023-02-01T17:36:54;8.10;86.60
21495;DHT22;10909;53.590;10.054;2023-02-01T17:39:19;8.20;86.40
21495;DHT22;10909;53.590;10.054;2023-02-01T17:42:07;8.20;86.50
21495;DHT22;10909;53.590;10.054;2023-02-01T17:44:33;8.20;86.10
21495;DHT22;10909;53.590;10.054;2023-02-01T17:46:59;8.30;85.80
21495;DHT22;10909;53.590;10.054;2023-02-01T17:49:26;8.30;85.80
21495;DHT22;10909;53.590;10.054;2023-02-01T17:51:53;8.30;85.10
21495;DHT22;10909;53.590;10.054;2023-02-01T17:54:19;8.30;85.40
21495;DHT22;10909;53.590;10.054;2023-02-01T17:56:45;8.40;85.70
21495;DHT22;10909;53.590;10.054;2023-02-01T17:59:13;8.30;85.00
21495;DHT22;10909;53.590;10.054;2023-02-01T18:01:40;8.40;85.30
21495;DHT22;10909;53.590;10.054;2023-02-01T18:04:11;8.40;85.50
21495;DHT22;10909;53.590;10.054;2023-02-01T18:06:37;8.40;85.10
21495;DHT22;10909;53.590;10.054;2023-02-01T18:09:03;8.40;84.40
21495;DHT22;10909;53.590;10.054;2023-02-01T18:11:29;8.40;84.60
21495;DHT22;10909;53.590;10.054;2023-02-01T18:13:58;8.40;84.20
21495;DHT22;10909;53.590;10.054;2023-02-01T18:16:31;8.50;84.40